Time;durP1;ratioP1;P1;durP2;ratioP2;P2;SDS_P1;SDS_P2;PMS_P1;PMS_P2;Temp;Humidity;BMP_temperature;BMP_pressure;BME280_temperature;BME280_humidity;BME280_pressure;Samples;Min_cycle;Max_cycle;Signal;HPM_P1;HPM_P2
2023/12/17 00:02:24;;;;;;;4.60;1.63;;;4.60;69.00;;;;;;5133133;27;20414;-60
2023/12/17 00:04:51;;;;;;;3.80;2.00;;;4.60;50.70;;;;;;5132442;27;20430;-60
2023/12/17 00:07:18;;;;;;;2.70;1.30;;;4.50;52.50;;;;;;5131415;27;20513;-61
2023/12/17 00:09:45;;;;;;;2.00;1.20;;;4.40;56.00;;;;;;5134324;27;20429;-61
2023/12/17 00:12:12;;;;;;;3.00;1.15;;;4.40;76.60;;;;;;5133453;27;20434;-60
2023/12/17 00:14:42;;;;;;;2.25;1.00;;;4.40;68.80;;;;;;5133836;27;20683;-60
2023/12/17 00:17:10;;;;;;;2.77;1.00;;;4.30;56.20;;;;;;5132932;27;20471;-60
2023/12/17 00:19:37;;;;;;;2.60;1.10;;;4.30;53.80;;;;;;5129374;27;21040;-61
2023/12/17 00:22:04;;;;;;;1.85;1.08;;;4.20;49.10;;;;;;5133665;27;20742;-60
2023/12/17 00:24:31;;;;;;;2.10;1.00;;;4.20;56.20;;;;;;5132682;27;20944;-61
2023/12/17 00:26:58;;;;;;;2.63;1.00;;;4.10;61.50;;;;;;5134859;27;20941;-61
2023/12/17 00:29:25;;;;;;;2.10;1.10;;;4.10;82.00;;;;;;5133656;27;20430;-61
2023/12/17 00:31:52;;;;;;;2.77;1.00;;;4.20;85.70;;;;;;5132701;27;20459;-61
2023/12/17 00:34:21;;;;;;;2.80;1.10;;;4.30;75.50;;;;;;5131706;27;20477;-60
2023/12/17 00:36:48;;;;;;;3.38;1.50;;;4.30;72.20;;;;;;5132599;27;20969;-61
2023/12/17 00:39:15;;;;;;;3.50;1.40;;;4.30;64.80;;;;;;5131875;27;20487;-60
2023/12/17 00:41:42;;;;;;;3.30;1.70;;;4.30;57.10;;;;;;5131823;27;20490;-60
2023/12/17 00:44:09;;;;;;;4.72;2.08;;;4.30;54.90;;;;;;5132528;27;20426;-61
2023/12/17 00:46:36;;;;;;;3.80;1.80;;;4.30;91.10;;;;;;5130949;27;20411;-61
2023/12/17 00:49:03;;;;;;;6.78;2.20;;;4.30;96.00;;;;;;5131135;27;20423;-59
2023/12/17 00:51:31;;;;;;;6.75;3.30;;;4.30;76.50;;;;;;5131078;27;20425;-60
2023/12/17 00:53:58;;;;;;;5.82;2.83;;;4.30;89.50;;;;;;5130060;27;20414;-60
2023/12/17 00:56:25;;;;;;;6.75;2.63;;;4.30;95.10;;;;;;5130211;27;20474;-60
2023/12/17 00:58:52;;;;;;;9.13;4.95;;;4.30;96.50;;;;;;5131084;27;20422;-60
2023/12/17 01:01:19;;;;;;;11.73;5.72;;;4.30;89.60;;;;;;5132386;27;20414;-60
2023/12/17 01:03:46;;;;;;;11.18;5.18;;;4.30;67.10;;;;;;5133170;27;21112;-60
2023/12/17 01:06:13;;;;;;;9.70;4.05;;;4.20;64.00;;;;;;5133718;27;20439;-60
2023/12/17 01:08:42;;;;;;;3.40;2.10;;;4.20;68.80;;;;;;5132488;27;20534;-60
2023/12/17 01:11:09;;;;;;;4.60;1.60;;;4.20;95.10;;;;;;5130442;27;20513;-60
2023/12/17 01:13:36;;;;;;;4.90;1.60;;;4.10;80.50;;;;;;5133084;27;20419;-60
2023/12/17 01:16:04;;;;;;;5.25;1.20;;;4.10;85.80;;;;;;5132682;27;20418;-59
2023/12/17 01:18:31;;;;;;;4.78;1.70;;;4.10;78.30;;;;;;5133195;27;20784;-60
2023/12/17 01:21:00;;;;;;;3.92;1.23;;;4.10;62.70;;;;;;5133232;27;20745;-60
2023/12/17 01:23:27;;;;;;;2.35;1.40;;;4.00;73.40;;;;;;5133081;27;20479;-60
2023/12/17 01:25:56;;;;;;;3.08;1.30;;;4.10;94.80;;;;;;5132616;27;20513;-60
2023/12/17 01:28:23;;;;;;;4.40;1.67;;;4.20;92.30;;;;;;5132706;27;20787;-61
2023/12/17 01:30:50;;;;;;;10.30;2.70;;;4.20;77.50;;;;;;5132885;27;20427;-60
2023/12/17 01:33:17;;;;;;;7.03;2.95;;;4.20;54.70;;;;;;5132595;27;20919;-60
2023/12/17 01:35:44;;;;;;;4.07;2.03;;;4.10;41.80;;;;;;5131333;27;20434;-60
2023/12/17 01:38:11;;;;;;;4.18;1.60;;;4.00;52.30;;;;;;5131735;27;20454;-60
2023/12/17 01:40:39;;;;;;;3.90;1.90;;;4.00;87.90;;;;;;5131076;27;20791;-60
2023/12/17 01:43:08;;;;;;;5.00;1.80;;;4.10;90.50;;;;;;5131551;27;20422;-60
2023/12/17 01:45:35;;;;;;;3.95;2.30;;;4.10;91.70;;;;;;5132951;27;20472;-60
2023/12/17 01:48:02;;;;;;;4.50;1.90;;;4.10;93.00;;;;;;5133278;28;20906;-60
2023/12/17 01:50:30;;;;;;;4.63;1.88;;;4.10;85.30;;;;;;5130478;28;20791;-60
2023/12/17 01:52:58;;;;;;;5.13;2.50;;;4.20;92.70;;;;;;5133282;28;20422;-60
2023/12/17 01:55:27;;;;;;;3.67;1.40;;;4.20;88.20;;;;;;5133474;27;20426;-60
2023/12/17 01:57:54;;;;;;;2.42;1.40;;;4.10;75.00;;;;;;5133346;28;20422;-60
2023/12/17 02:00:23;;;;;;;2.75;1.40;;;4.10;80.10;;;;;;5133426;28;20418;-60
2023/12/17 02:02:50;;;;;;;2.47;1.17;;;4.00;78.80;;;;;;5130854;28;20475;-60
2023/12/17 02:05:17;;;;;;;2.78;1.00;;;4.00;62.10;;;;;;5132821;28;20427;-60
2023/12/17 02:07:44;;;;;;;2.08;1.10;;;4.00;58.60;;;;;;5131550;28;20426;-60
2023/12/17 02:10:11;;;;;;;2.78;1.10;;;3.90;57.50;;;;;;5136950;27;20430;-59
2023/12/17 02:12:39;;;;;;;2.33;1.20;;;4.00;66.10;;;;;;5136980;27;20425;-59
2023/12/17 02:15:07;;;;;;;4.93;1.30;;;4.00;45.90;;;;;;5137446;27;20433;-60
2023/12/17 02:17:36;;;;;;;1.88;1.10;;;3.90;76.10;;;;;;5136635;27;20422;-60
2023/12/17 02:20:03;;;;;;;3.10;1.10;;;3.90;67.60;;;;;;5136016;27;20854;-60
2023/12/17 02:22:33;;;;;;;3.85;1.30;;;3.90;76.10;;;;;;5136797;27;20414;-60
2023/12/17 02:25:01;;;;;;;3.78;1.50;;;3.90;74.20;;;;;;5136764;27;20475;-60
2023/12/17 02:27:28;;;;;;;2.75;1.45;;;3.80;65.60;;;;;;5136929;27;20535;-60
2023/12/17 02:29:56;;;;;;;2.78;1.30;;;3.80;56.40;;;;;;5136769;27;20437;-60
2023/12/17 02:32:23;;;;;;;3.70;1.30;;;3.70;54.30;;;;;;5137447;27;20422;-60
2023/12/17 02:34:50;;;;;;;2.40;1.20;;;3.60;82.90;;;;;;5138003;27;20418;-60
2023/12/17 02:37:18;;;;;;;5.30;1.30;;;3.60;80.40;;;;;;5136406;27;20633;-60
2023/12/17 02:39:45;;;;;;;2.50;1.50;;;3.60;87.90;;;;;;5137468;27;20414;-60
2023/12/17 02:42:14;;;;;;;3.30;1.50;;;3.50;89.70;;;;;;5136694;27;20474;-60
2023/12/17 02:44:41;;;;;;;4.05;1.80;;;3.50;97.50;;;;;;5135796;27;20533;-60
2023/12/17 02:47:08;;;;;;;3.45;1.80;;;3.40;96.70;;;;;;5137704;27;20455;-59
2023/12/17 02:49:35;;;;;;;4.50;1.42;;;3.40;94.20;;;;;;5137342;27;20422;-60
2023/12/17 02:52:02;;;;;;;2.47;1.40;;;3.30;99.90;;;;;;5134753;27;20413;-59
2023/12/17 02:54:30;;;;;;;2.67;1.90;;;3.40;99.90;;;;;;5136321;27;20433;-60
2023/12/17 02:56:57;;;;;;;3.65;1.80;;;3.50;99.90;;;;;;5135799;27;20945;-60
2023/12/17 02:59:25;;;;;;;2.00;1.70;;;3.60;99.90;;;;;;5135504;27;20521;-60
2023/12/17 03:01:52;;;;;;;5.77;2.00;;;3.70;99.90;;;;;;5135623;27;20430;-60
2023/12/17 03:04:19;;;;;;;4.40;2.37;;;3.60;99.90;;;;;;5136274;27;20418;-60
2023/12/17 03:06:46;;;;;;;4.18;2.30;;;3.50;95.80;;;;;;5136213;27;20445;-60
2023/12/17 03:09:13;;;;;;;5.35;2.00;;;3.50;99.90;;;;;;5137074;27;20434;-61
2023/12/17 03:11:40;;;;;;;7.38;2.50;;;3.60;99.90;;;;;;5137338;27;20431;-61
2023/12/17 03:14:07;;;;;;;4.82;2.30;;;3.70;99.90;;;;;;5135187;27;20483;-60
2023/12/17 03:16:35;;;;;;;3.58;2.15;;;3.80;99.90;;;;;;5136029;27;20789;-61
2023/12/17 03:19:02;;;;;;;3.00;1.80;;;3.80;99.90;;;;;;5135354;27;20437;-59
2023/12/17 03:21:29;;;;;;;3.30;1.70;;;3.90;99.90;;;;;;5135166;27;20418;-61
2023/12/17 03:23:56;;;;;;;4.97;1.70;;;4.00;99.90;;;;;;5136657;27;20418;-61
2023/12/17 03:26:23;;;;;;;4.57;2.20;;;4.00;95.20;;;;;;5135552;27;20846;-61
2023/12/17 03:28:50;;;;;;;4.43;1.70;;;3.90;83.80;;;;;;5135638;27;20487;-61
2023/12/17 03:31:17;;;;;;;3.25;2.17;;;3.80;65.70;;;;;;5135282;27;20430;-61
2023/12/17 03:33:47;;;;;;;4.72;2.40;;;3.50;73.90;;;;;;5135492;27;20917;-61
2023/12/17 03:36:15;;;;;;;3.40;1.97;;;3.30;91.70;;;;;;5135547;27;20427;-61
2023/12/17 03:38:43;;;;;;;4.93;2.28;;;3.40;99.90;;;;;;5135123;27;20421;-60
2023/12/17 03:41:20;;;;;;;3.30;1.80;;;3.30;99.90;;;;;;5135279;27;20730;-61
2023/12/17 03:43:50;;;;;;;4.35;2.05;;;3.40;99.90;;;;;;5134366;27;20423;-61
2023/12/17 03:46:18;;;;;;;5.10;1.90;;;3.40;97.80;;;;;;5133453;27;20734;-61
2023/12/17 03:48:47;;;;;;;3.40;1.60;;;3.30;99.90;;;;;;5134364;27;20479;-61
2023/12/17 03:51:14;;;;;;;5.28;2.15;;;3.10;92.20;;;;;;5134777;27;20430;-61
2023/12/17 03:53:41;;;;;;;4.20;2.00;;;2.80;99.90;;;;;;5136215;27;20418;-61
2023/12/17 03:56:11;;;;;;;4.13;1.80;;;2.60;99.90;;;;;;5134636;27;20518;-61
2023/12/17 03:58:38;;;;;;;3.20;1.90;;;2.50;99.90;;;;;;5133137;27;20449;-62
2023/12/17 04:01:06;;;;;;;3.88;1.65;;;2.50;99.90;;;;;;5135356;27;20471;-61
2023/12/17 04:03:34;;;;;;;3.70;1.60;;;2.50;99.90;;;;;;5134649;27;20486;-61
2023/12/17 04:06:06;;;;;;;4.75;1.80;;;2.50;99.90;;;;;;5132847;27;20426;-61
2023/12/17 04:08:33;;;;;;;4.85;1.85;;;2.50;99.90;;;;;;5132963;27;20430;-61
2023/12/17 04:11:00;;;;;;;3.63;1.70;;;2.50;99.90;;;;;;5132209;27;20438;-61
2023/12/17 04:13:27;;;;;;;3.85;1.88;;;2.50;99.90;;;;;;5132143;27;20454;-61
2023/12/17 04:15:54;;;;;;;6.30;2.38;;;2.50;99.90;;;;;;5133034;27;20422;-61
2023/12/17 04:18:21;;;;;;;6.43;2.22;;;2.50;99.90;;;;;;5133848;27;20422;-61
2023/12/17 04:20:48;;;;;;;4.13;2.20;;;2.60;99.90;;;;;;5134086;27;20410;-61
2023/12/17 04:23:17;;;;;;;3.78;2.05;;;2.70;99.90;;;;;;5135007;27;20721;-61
2023/12/17 04:25:44;;;;;;;4.20;1.70;;;2.70;99.90;;;;;;5134928;27;20849;-61
2023/12/17 04:28:11;;;;;;;5.07;2.00;;;2.70;99.90;;;;;;5134225;27;20487;-61
2023/12/17 04:30:38;;;;;;;3.88;2.22;;;2.70;99.90;;;;;;5135843;27;20429;-61
2023/12/17 04:33:05;;;;;;;6.13;1.90;;;2.70;99.90;;;;;;5133768;27;20426;-61
2023/12/17 04:35:32;;;;;;;4.03;1.90;;;2.70;99.90;;;;;;5135635;27;20422;-61
2023/12/17 04:37:59;;;;;;;4.18;1.63;;;2.70;99.90;;;;;;5135768;27;20430;-61
2023/12/17 04:40:27;;;;;;;3.00;2.00;;;2.70;99.90;;;;;;5135716;27;20530;-61
2023/12/17 04:42:54;;;;;;;3.95;1.83;;;2.80;99.90;;;;;;5135260;27;20417;-61
2023/12/17 04:45:21;;;;;;;4.85;1.80;;;2.70;99.90;;;;;;5136219;27;20478;-61
2023/12/17 04:47:48;;;;;;;4.25;1.60;;;2.70;99.90;;;;;;5135641;27;20422;-62
2023/12/17 04:50:15;;;;;;;3.60;1.80;;;2.70;99.90;;;;;;5133735;27;20418;-61
2023/12/17 04:52:42;;;;;;;3.75;2.00;;;2.70;99.90;;;;;;5133328;27;20437;-61
2023/12/17 04:55:09;;;;;;;3.40;1.92;;;2.60;99.90;;;;;;5133945;27;20414;-61
2023/12/17 04:57:37;;;;;;;3.58;2.58;;;2.60;99.90;;;;;;5133879;27;21160;-61
2023/12/17 05:00:06;;;;;;;4.25;2.10;;;2.60;99.90;;;;;;5133477;27;20414;-61
2023/12/17 05:02:33;;;;;;;4.60;1.90;;;2.60;99.90;;;;;;5133653;27;20838;-61
2023/12/17 05:05:00;;;;;;;3.97;2.20;;;2.60;99.90;;;;;;5134054;27;20837;-60
2023/12/17 05:07:27;;;;;;;4.32;2.30;;;2.60;99.90;;;;;;5134304;27;20453;-60
2023/12/17 05:09:54;;;;;;;5.20;2.60;;;2.50;99.90;;;;;;5134044;27;20510;-60
2023/12/17 05:12:21;;;;;;;4.07;1.90;;;2.50;99.90;;;;;;5133182;27;20434;-60
2023/12/17 05:14:49;;;;;;;3.65;2.00;;;2.50;99.90;;;;;;5134345;27;20422;-60
2023/12/17 05:17:16;;;;;;;3.70;2.03;;;2.50;99.90;;;;;;5134355;27;20838;-60
2023/12/17 05:19:43;;;;;;;4.38;1.80;;;2.60;99.90;;;;;;5133430;27;20419;-60
2023/12/17 05:22:10;;;;;;;3.50;1.80;;;2.60;99.90;;;;;;5132435;27;20414;-60
2023/12/17 05:24:37;;;;;;;4.70;1.83;;;2.60;99.90;;;;;;5133128;27;20415;-60
2023/12/17 05:27:05;;;;;;;3.78;2.30;;;2.70;99.90;;;;;;5132797;27;20611;-60
2023/12/17 05:29:32;;;;;;;3.60;1.73;;;2.70;99.90;;;;;;5133246;27;20768;-60
2023/12/17 05:32:00;;;;;;;2.55;1.90;;;2.70;99.90;;;;;;5131937;27;20430;-60
2023/12/17 05:34:27;;;;;;;4.78;1.95;;;2.60;99.90;;;;;;5133000;27;20475;-60
2023/12/17 05:36:54;;;;;;;3.38;2.00;;;2.60;99.90;;;;;;5133576;27;20414;-60
2023/12/17 05:39:21;;;;;;;3.43;2.20;;;2.70;99.90;;;;;;5134567;27;20770;-60
2023/12/17 05:41:48;;;;;;;3.40;1.90;;;2.60;99.90;;;;;;5134796;27;20792;-60
2023/12/17 05:44:15;;;;;;;2.87;1.80;;;2.70;99.90;;;;;;5134620;27;20431;-60
2023/12/17 05:46:42;;;;;;;2.85;1.83;;;2.70;99.90;;;;;;5134795;27;20419;-60
2023/12/17 05:49:10;;;;;;;3.40;2.08;;;2.70;99.90;;;;;;5133020;27;20410;-60
2023/12/17 05:51:38;;;;;;;2.92;1.73;;;2.60;99.90;;;;;;5133789;28;20422;-60
2023/12/17 05:54:08;;;;;;;4.85;2.13;;;2.60;99.90;;;;;;5135253;28;20829;-60
2023/12/17 05:56:40;;;;;;;3.47;1.80;;;2.60;99.90;;;;;;5134469;28;20698;-61
2023/12/17 05:59:07;;;;;;;2.90;1.83;;;2.60;99.90;;;;;;5134153;28;20518;-60
2023/12/17 06:01:34;;;;;;;3.00;2.42;;;2.60;99.90;;;;;;5133595;28;20414;-60
2023/12/17 06:04:02;;;;;;;4.20;2.10;;;2.60;99.90;;;;;;5132119;27;20426;-60
2023/12/17 06:06:31;;;;;;;3.97;2.10;;;2.50;99.90;;;;;;5129514;27;20465;-60
2023/12/17 06:08:58;;;;;;;4.67;2.00;;;2.50;99.90;;;;;;5122027;28;20934;-60
2023/12/17 06:11:25;;;;;;;2.83;1.77;;;2.50;99.90;;;;;;5127255;28;20521;-60
2023/12/17 06:13:52;;;;;;;3.92;1.80;;;2.50;99.90;;;;;;5130925;28;20424;-60
2023/12/17 06:16:20;;;;;;;4.32;2.00;;;2.50;99.90;;;;;;5111836;28;20424;-60
2023/12/17 06:18:47;;;;;;;2.90;1.70;;;2.50;99.90;;;;;;5107989;28;20413;-60
2023/12/17 06:21:23;;;;;;;3.58;1.90;;;2.50;99.90;;;;;;5111090;28;20427;-60
2023/12/17 06:23:57;;;;;;;4.80;1.98;;;2.70;99.90;;;;;;5108430;28;20792;-60
2023/12/17 06:26:26;;;;;;;4.70;2.20;;;2.60;99.90;;;;;;5096581;28;20440;-60
2023/12/17 06:28:53;;;;;;;2.63;1.60;;;2.60;99.90;;;;;;5113794;28;20434;-60
2023/12/17 06:31:20;;;;;;;4.28;1.63;;;2.80;99.90;;;;;;5113275;28;20778;-60
2023/12/17 06:33:47;;;;;;;4.10;2.00;;;2.90;99.90;;;;;;5113724;28;20416;-60
2023/12/17 06:36:16;;;;;;;3.67;1.52;;;3.00;99.90;;;;;;5114132;28;20534;-60
2023/12/17 06:38:43;;;;;;;2.88;1.60;;;3.20;99.90;;;;;;5113131;28;20420;-60
2023/12/17 06:41:12;;;;;;;2.63;1.30;;;3.30;99.90;;;;;;5113292;28;20421;-61
2023/12/17 06:43:42;;;;;;;4.80;1.60;;;3.20;99.90;;;;;;5112148;28;20424;-61
2023/12/17 06:46:09;;;;;;;2.75;1.60;;;3.20;99.90;;;;;;5113297;28;20416;-60
2023/12/17 06:48:37;;;;;;;3.45;1.30;;;3.10;99.90;;;;;;5112501;28;20428;-60
2023/12/17 06:51:05;;;;;;;3.03;1.52;;;3.20;99.90;;;;;;5112884;28;20428;-59
2023/12/17 06:53:32;;;;;;;3.17;1.63;;;3.20;99.90;;;;;;5112788;28;20419;-60
2023/12/17 06:55:59;;;;;;;3.13;1.60;;;3.00;82.00;;;;;;5114409;28;20871;-60
2023/12/17 06:58:27;;;;;;;1.75;1.33;;;2.80;88.00;;;;;;5116814;28;20427;-60
2023/12/17 07:00:55;;;;;;;3.05;1.60;;;2.70;99.90;;;;;;5116638;28;20469;-60
2023/12/17 07:03:22;;;;;;;3.00;1.60;;;2.70;99.90;;;;;;5116210;28;20450;-60
2023/12/17 07:05:50;;;;;;;5.10;1.90;;;2.70;99.90;;;;;;5116890;28;20416;-60
2023/12/17 07:08:17;;;;;;;5.10;2.33;;;2.90;99.90;;;;;;5099314;28;20434;-60
2023/12/17 07:10:46;;;;;;;4.72;1.98;;;2.90;99.90;;;;;;5096809;28;20443;-60
2023/12/17 07:13:13;;;;;;;3.38;1.92;;;3.00;99.90;;;;;;5115199;28;20420;-60
2023/12/17 07:15:43;;;;;;;3.70;1.92;;;3.10;99.90;;;;;;5128661;27;20477;-60
2023/12/17 07:18:10;;;;;;;3.88;1.83;;;3.10;97.60;;;;;;5152045;27;20427;-60
2023/12/17 07:20:38;;;;;;;3.10;1.88;;;3.00;82.30;;;;;;5135757;27;20896;-60
2023/12/17 07:23:05;;;;;;;2.95;1.80;;;3.00;81.70;;;;;;5137266;27;20506;-60
2023/12/17 07:25:32;;;;;;;5.15;2.10;;;3.00;90.10;;;;;;5137080;27;20430;-60
2023/12/17 07:27:59;;;;;;;3.63;1.52;;;2.90;94.60;;;;;;5136184;27;20758;-60
2023/12/17 07:30:30;;;;;;;3.22;1.85;;;2.90;98.00;;;;;;5135259;27;20479;-60
2023/12/17 07:32:58;;;;;;;3.38;1.95;;;3.00;99.90;;;;;;5136578;27;20434;-60
2023/12/17 07:35:26;;;;;;;3.70;1.60;;;3.00;99.80;;;;;;5136722;27;20567;-60
2023/12/17 07:37:53;;;;;;;5.43;1.80;;;3.00;99.90;;;;;;5133758;27;20625;-60
2023/12/17 07:40:20;;;;;;;3.90;1.60;;;3.00;99.90;;;;;;5135148;27;20419;-62
2023/12/17 07:42:47;;;;;;;3.13;1.52;;;3.10;99.90;;;;;;5136315;27;20733;-60
2023/12/17 07:45:15;;;;;;;3.97;1.58;;;3.20;99.90;;;;;;5134643;27;20521;-60
2023/12/17 07:47:44;;;;;;;2.85;1.20;;;3.20;92.90;;;;;;5134977;27;20763;-60
2023/12/17 07:50:13;;;;;;;3.55;1.73;;;3.00;96.30;;;;;;5134872;27;20487;-60
2023/12/17 07:52:41;;;;;;;2.47;1.30;;;2.90;99.90;;;;;;5135150;27;20430;-60
2023/12/17 07:55:09;;;;;;;2.40;1.50;;;2.90;99.90;;;;;;5136588;27;20471;-61
2023/12/17 07:57:36;;;;;;;2.90;1.50;;;3.00;99.90;;;;;;5135621;27;20419;-60
2023/12/17 08:00:07;;;;;;;2.40;1.35;;;3.00;99.90;;;;;;5135696;27;20446;-60
2023/12/17 08:02:35;;;;;;;2.50;1.30;;;3.00;99.90;;;;;;5134503;27;20437;-60
2023/12/17 08:05:05;;;;;;;2.42;1.30;;;3.00;99.90;;;;;;5135583;27;20486;-60
2023/12/17 08:07:37;;;;;;;2.60;1.30;;;3.00;99.90;;;;;;5127884;27;20860;-60
2023/12/17 08:10:05;;;;;;;2.20;1.30;;;3.00;99.90;;;;;;5114771;28;21171;-60
2023/12/17 08:12:32;;;;;;;2.80;1.40;;;3.10;99.90;;;;;;5123754;27;20525;-60
2023/12/17 08:14:59;;;;;;;3.05;1.80;;;3.10;99.90;;;;;;5135649;27;20478;-60
2023/12/17 08:17:26;;;;;;;4.18;1.30;;;3.20;99.90;;;;;;5133407;27;20430;-60
2023/12/17 08:19:53;;;;;;;2.88;1.40;;;3.20;99.90;;;;;;5135527;27;20492;-60
2023/12/17 08:22:20;;;;;;;2.90;1.30;;;3.10;99.90;;;;;;5134999;27;20425;-61
2023/12/17 08:24:49;;;;;;;2.80;1.20;;;3.20;99.90;;;;;;5134446;27;20415;-60
2023/12/17 08:27:16;;;;;;;2.60;1.20;;;3.30;99.90;;;;;;5134274;27;20935;-60
2023/12/17 08:29:47;;;;;;;2.00;1.25;;;3.40;99.90;;;;;;5134321;27;20822;-60
2023/12/17 08:32:14;;;;;;;2.80;1.60;;;3.40;99.90;;;;;;5135303;27;20426;-60
2023/12/17 08:34:41;;;;;;;2.90;1.45;;;3.70;99.90;;;;;;5134541;27;20726;-60
2023/12/17 08:37:08;;;;;;;3.20;1.40;;;3.90;99.90;;;;;;5133579;27;20498;-61
2023/12/17 08:39:35;;;;;;;2.55;1.50;;;3.90;85.10;;;;;;5135253;27;20423;-60
2023/12/17 08:42:04;;;;;;;6.63;1.85;;;3.90;71.50;;;;;;5134166;27;20479;-60
2023/12/17 08:44:31;;;;;;;4.45;1.88;;;3.90;68.40;;;;;;5134035;27;21005;-60
2023/12/17 08:46:58;;;;;;;3.90;1.40;;;3.90;89.50;;;;;;5134912;27;20775;-60
2023/12/17 08:49:25;;;;;;;3.15;1.60;;;4.00;61.10;;;;;;5135367;27;20873;-60
2023/12/17 08:51:52;;;;;;;2.95;1.33;;;4.10;73.60;;;;;;5134011;27;20434;-60
2023/12/17 08:54:19;;;;;;;2.45;1.33;;;4.20;66.30;;;;;;5133507;27;20418;-60
2023/12/17 08:56:46;;;;;;;2.08;1.10;;;4.30;62.30;;;;;;5132706;27;20427;-60
2023/12/17 08:59:15;;;;;;;2.20;1.30;;;4.30;34.90;;;;;;5134410;27;20583;-60
2023/12/17 09:01:41;;;;;;;2.55;1.20;;;4.30;39.40;;;;;;5133989;27;20764;-60
2023/12/17 09:04:09;;;;;;;2.38;1.30;;;4.30;38.40;;;;;;5131036;27;20775;-60
2023/12/17 09:06:43;;;;;;;1.80;1.20;;;4.30;47.90;;;;;;5131419;27;20501;-60
2023/12/17 09:09:10;;;;;;;3.20;1.40;;;4.40;53.50;;;;;;5131200;27;20448;-60
2023/12/17 09:11:38;;;;;;;2.35;1.25;;;4.40;40.50;;;;;;5134370;27;20711;-60
2023/12/17 09:14:05;;;;;;;3.20;1.43;;;4.40;37.00;;;;;;5128373;27;20487;-59
2023/12/17 09:16:33;;;;;;;3.70;1.27;;;4.40;42.20;;;;;;5131450;27;20430;-60
2023/12/17 09:19:00;;;;;;;2.28;1.30;;;4.40;33.70;;;;;;5130202;27;20421;-60
2023/12/17 09:21:27;;;;;;;3.00;1.20;;;4.30;38.10;;;;;;5130919;27;20515;-60
2023/12/17 09:23:54;;;;;;;2.95;1.38;;;4.40;57.00;;;;;;5132754;27;20430;-60
2023/12/17 09:26:21;;;;;;;1.92;1.20;;;4.40;47.80;;;;;;5133106;27;20422;-60
2023/12/17 09:28:49;;;;;;;3.20;1.40;;;4.50;48.60;;;;;;5133088;27;20635;-60
2023/12/17 09:31:16;;;;;;;3.50;2.30;;;4.60;40.80;;;;;;5132947;27;20429;-60
2023/12/17 09:33:44;;;;;;;3.88;2.30;;;4.70;42.50;;;;;;5131032;27;20422;-60
2023/12/17 09:36:11;;;;;;;5.67;2.33;;;5.00;31.60;;;;;;5133037;27;20445;-60
2023/12/17 09:38:38;;;;;;;3.63;2.30;;;5.20;15.10;;;;;;5131993;27;20422;-60
2023/12/17 09:41:06;;;;;;;3.30;2.40;;;5.30;1.00;;;;;;5132134;27;20437;-60
2023/12/17 09:43:33;;;;;;;3.45;2.55;;;5.30;1.00;;;;;;5134286;27;20517;-60
2023/12/17 09:46:00;;;;;;;3.75;2.05;;;5.40;1.00;;;;;;5133326;27;20699;-60
2023/12/17 09:48:28;;;;;;;4.93;2.80;;;5.30;1.00;;;;;;5131962;27;20426;-60
2023/12/17 09:50:56;;;;;;;3.80;2.15;;;5.30;1.00;;;;;;5133778;28;20422;-60
2023/12/17 09:53:23;;;;;;;4.78;2.38;;;5.40;1.00;;;;;;5133162;28;20430;-60
2023/12/17 09:55:50;;;;;;;4.78;2.40;;;5.40;1.00;;;;;;5132674;28;21019;-60
2023/12/17 09:58:17;;;;;;;2.85;2.28;;;5.50;1.00;;;;;;5131419;28;20421;-60
2023/12/17 10:00:44;;;;;;;3.42;2.40;;;5.60;1.00;;;;;;5133194;27;20434;-60
2023/12/17 10:03:14;;;;;;;4.10;2.35;;;5.60;1.00;;;;;;5133191;27;20764;-60
2023/12/17 10:05:42;;;;;;;4.65;2.42;;;5.80;1.00;;;;;;5132943;28;20428;-60
2023/12/17 10:08:10;;;;;;;5.97;2.67;;;6.00;1.00;;;;;;5132576;28;20427;-61
2023/12/17 10:10:37;;;;;;;4.38;2.50;;;6.20;1.00;;;;;;5132640;27;20428;-60
2023/12/17 10:13:04;;;;;;;4.40;2.42;;;6.20;1.00;;;;;;5133989;27;20422;-60
2023/12/17 10:15:36;;;;;;;5.03;2.75;;;6.10;1.00;;;;;;5141809;27;20421;-60
2023/12/17 10:18:04;;;;;;;4.13;2.30;;;6.10;1.00;;;;;;5151994;27;20444;-60
2023/12/17 10:20:31;;;;;;;4.20;2.47;;;6.20;1.00;;;;;;5130586;28;20422;-60
2023/12/17 10:22:59;;;;;;;3.42;2.40;;;6.40;1.00;;;;;;5132981;27;20461;-60
2023/12/17 10:25:28;;;;;;;4.65;2.20;;;6.70;1.00;;;;;;5133309;28;20499;-60
2023/12/17 10:27:58;;;;;;;4.43;2.65;;;6.80;1.00;;;;;;5131816;28;20474;-60
2023/12/17 10:30:28;;;;;;;5.47;2.70;;;6.70;1.00;;;;;;5148580;27;20421;-60
2023/12/17 10:32:56;;;;;;;4.93;2.97;;;6.40;1.00;;;;;;5131018;27;20432;-60
2023/12/17 10:35:24;;;;;;;5.10;3.10;;;6.40;1.00;;;;;;5136119;27;20453;-61
2023/12/17 10:37:54;;;;;;;5.10;3.20;;;6.30;1.00;;;;;;5136314;27;20419;-60
2023/12/17 10:40:22;;;;;;;5.45;3.20;;;6.20;1.00;;;;;;5142414;27;20440;-60
2023/12/17 10:42:53;;;;;;;5.03;3.10;;;6.20;1.00;;;;;;5135699;27;20491;-60
2023/12/17 10:45:21;;;;;;;5.80;2.90;;;6.20;1.00;;;;;;5134609;27;20474;-60
2023/12/17 10:47:52;;;;;;;4.07;2.75;;;6.20;1.00;;;;;;5141221;27;20789;-60
2023/12/17 10:50:19;;;;;;;4.70;3.28;;;6.40;1.00;;;;;;5133273;27;20426;-60
2023/12/17 10:52:47;;;;;;;5.50;3.47;;;6.30;1.00;;;;;;5135270;27;20842;-60
2023/12/17 10:55:15;;;;;;;4.43;2.92;;;6.20;1.00;;;;;;5138367;27;20460;-60
2023/12/17 10:57:47;;;;;;;5.07;2.95;;;6.20;1.00;;;;;;5139010;27;20521;-60
2023/12/17 11:00:19;;;;;;;4.45;3.17;;;6.20;1.00;;;;;;5135141;27;20483;-60
2023/12/17 11:02:48;;;;;;;4.78;3.03;;;6.30;1.00;;;;;;5135536;27;20766;-60
2023/12/17 11:05:15;;;;;;;4.38;2.85;;;6.50;1.00;;;;;;5135256;27;20423;-60
2023/12/17 11:07:43;;;;;;;4.38;3.10;;;6.70;1.00;;;;;;5135543;27;20473;-60
2023/12/17 11:10:11;;;;;;;2.58;2.13;;;6.80;1.00;;;;;;5145530;27;20417;-60
2023/12/17 11:12:40;;;;;;;3.67;2.05;;;6.90;1.00;;;;;;5134548;27;20513;-60
2023/12/17 11:15:08;;;;;;;3.20;2.03;;;6.90;1.00;;;;;;5135024;27;20425;-61
2023/12/17 11:17:38;;;;;;;3.35;2.33;;;6.90;1.00;;;;;;5134403;27;20425;-61
2023/12/17 11:20:07;;;;;;;3.28;2.20;;;7.00;1.00;;;;;;5136006;27;20445;-59
2023/12/17 11:22:38;;;;;;;3.40;1.50;;;7.20;1.00;;;;;;5133076;27;20483;-59
2023/12/17 11:25:09;;;;;;;1.60;1.20;;;7.20;1.00;;;;;;5135431;27;20430;-58
2023/12/17 11:27:36;;;;;;;1.95;1.38;;;7.10;1.00;;;;;;5135630;27;20471;-59
2023/12/17 11:30:03;;;;;;;4.10;2.03;;;7.20;1.00;;;;;;5135041;27;20475;-59
2023/12/17 11:32:31;;;;;;;2.20;1.80;;;7.30;1.00;;;;;;5134605;27;20434;-59
2023/12/17 11:35:01;;;;;;;5.10;2.60;;;7.40;1.00;;;;;;5133971;27;20426;-59
2023/12/17 11:37:34;;;;;;;4.30;2.65;;;7.50;1.00;;;;;;5135681;27;20430;-59
2023/12/17 11:40:01;;;;;;;3.97;2.97;;;7.60;1.00;;;;;;5134591;27;20419;-57
2023/12/17 11:42:28;;;;;;;4.95;3.20;;;7.60;1.00;;;;;;5134602;27;20406;-63
2023/12/17 11:44:55;;;;;;;5.95;2.83;;;7.60;1.00;;;;;;5134883;27;20426;-59
2023/12/17 11:47:26;;;;;;;6.05;3.67;;;7.60;1.00;;;;;;5138366;27;20726;-62
2023/12/17 11:50:00;;;;;;;4.70;3.40;;;7.60;1.00;;;;;;5143483;27;20462;-62
2023/12/17 11:52:27;;;;;;;5.05;4.05;;;7.70;1.00;;;;;;5134097;27;20533;-63
2023/12/17 11:55:01;;;;;;;4.93;3.40;;;7.80;1.00;;;;;;5134872;27;20454;-60
2023/12/17 11:57:30;;;;;;;5.28;3.00;;;7.80;1.00;;;;;;5140322;27;20832;-60
2023/12/17 11:59:57;;;;;;;4.70;2.87;;;7.80;1.00;;;;;;5134304;27;20476;-63
2023/12/17 12:02:27;;;;;;;4.32;3.38;;;7.90;1.00;;;;;;5134698;27;20430;-60
2023/12/17 12:04:55;;;;;;;4.38;2.92;;;8.00;1.00;;;;;;5132677;27;20430;-60
2023/12/17 12:07:24;;;;;;;3.10;2.75;;;8.00;1.00;;;;;;5133338;27;20434;-60
2023/12/17 12:10:05;;;;;;;3.80;2.65;;;7.90;1.00;;;;;;5133781;27;20418;-61
2023/12/17 12:12:33;;;;;;;4.13;2.92;;;7.90;1.00;;;;;;5134182;27;20414;-61
2023/12/17 12:15:02;;;;;;;3.77;2.70;;;8.00;1.00;;;;;;5133733;27;20479;-61
2023/12/17 12:17:40;;;;;;;3.63;2.35;;;8.00;1.00;;;;;;5134182;27;20705;-60
2023/12/17 12:20:08;;;;;;;5.28;3.53;;;8.00;1.00;;;;;;5133893;27;20439;-60
2023/12/17 12:22:38;;;;;;;5.20;3.67;;;7.80;1.00;;;;;;5134300;27;20895;-60
2023/12/17 12:25:06;;;;;;;4.72;3.22;;;7.70;1.00;;;;;;5130492;27;20856;-60
2023/12/17 12:27:33;;;;;;;5.13;3.65;;;7.70;1.00;;;;;;5136099;27;20786;-61
2023/12/17 12:30:00;;;;;;;5.30;3.55;;;7.70;1.00;;;;;;5133716;27;20426;-60
2023/12/17 12:32:28;;;;;;;5.05;3.50;;;7.80;1.00;;;;;;5129709;27;20439;-60
2023/12/17 12:34:55;;;;;;;5.10;3.90;;;7.70;1.00;;;;;;5137390;27;20433;-59
2023/12/17 12:37:33;;;;;;;3.67;2.97;;;7.50;1.00;;;;;;5133746;27;20850;-59
2023/12/17 12:40:02;;;;;;;4.68;3.60;;;7.50;1.00;;;;;;5126430;27;20410;-59
2023/12/17 12:42:30;;;;;;;3.80;2.95;;;7.50;1.00;;;;;;5134215;27;20422;-59
2023/12/17 12:44:57;;;;;;;4.70;3.60;;;7.50;1.00;;;;;;5134071;27;20426;-59
2023/12/17 12:47:25;;;;;;;3.47;2.92;;;7.60;1.00;;;;;;5132302;27;20422;-59
2023/12/17 12:49:52;;;;;;;4.00;2.90;;;7.60;1.00;;;;;;5130416;27;20435;-59
2023/12/17 12:52:22;;;;;;;4.17;2.77;;;7.70;1.00;;;;;;5126218;27;21572;-59
2023/12/17 12:54:51;;;;;;;3.80;3.00;;;7.90;1.00;;;;;;5153542;27;20477;-60
2023/12/17 12:57:19;;;;;;;4.60;3.13;;;8.00;1.00;;;;;;5155270;27;20417;-62
2023/12/17 12:59:46;;;;;;;5.10;2.80;;;8.00;1.00;;;;;;5154900;27;20754;-61
2023/12/17 13:02:14;;;;;;;4.65;2.65;;;8.20;1.00;;;;;;5154360;27;20781;-61
2023/12/17 13:04:41;;;;;;;5.97;3.17;;;8.20;1.00;;;;;;5153864;27;20408;-60